Time;durP1;ratioP1;P1;durP2;ratioP2;P2;SDS_P1;SDS_P2;PMS_P1;PMS_P2;Temp;Humidity;BMP_temperature;BMP_pressure;BME280_temperature;BME280_humidity;BME280_pressure;Samples;Min_cycle;Max_cycle;Signal;HPM_P1;HPM_P2
2022/02/15 00:02:27;;;;;;;6.47;5.63;;;;;;;7.10;100.00;95669.22;4989949;28;20486;-57
2022/02/15 00:04:57;;;;;;;8.75;6.10;;;;;;;6.95;100.00;95662.78;4985860;28;20089;-51
2022/02/15 00:07:25;;;;;;;6.72;5.95;;;;;;;7.13;100.00;95663.69;4994634;28;20096;-53
2022/02/15 00:09:53;;;;;;;9.43;6.07;;;;;;;7.12;100.00;95664.66;5000192;28;20405;-51
2022/02/15 00:12:22;;;;;;;7.10;5.72;;;;;;;7.23;100.00;95661.06;4994386;28;20120;-54
2022/02/15 00:14:52;;;;;;;8.40;5.95;;;;;;;7.29;100.00;95663.91;4983433;28;20137;-50
2022/02/15 00:17:20;;;;;;;7.65;5.57;;;;;;;7.19;100.00;95671.00;4969274;28;20099;-55
2022/02/15 00:19:50;;;;;;;8.77;6.57;;;;;;;7.35;100.00;95679.06;4977309;28;20047;-53
2022/02/15 00:22:18;;;;;;;9.48;5.60;;;;;;;7.17;100.00;95677.34;4978831;28;20066;-56
2022/02/15 00:24:47;;;;;;;7.40;6.20;;;;;;;7.24;100.00;95671.38;4956801;28;20067;-49
2022/02/15 00:27:15;;;;;;;8.38;6.05;;;;;;;7.27;100.00;95675.53;4967827;28;20552;-50
2022/02/15 00:29:44;;;;;;;8.70;6.70;;;;;;;7.16;100.00;95667.81;4967625;28;20575;-57
2022/02/15 00:32:13;;;;;;;8.40;6.25;;;;;;;7.17;100.00;95674.72;4975627;28;20098;-53
2022/02/15 00:34:42;;;;;;;7.87;6.00;;;;;;;7.14;100.00;95676.66;4990746;28;20473;-50
2022/02/15 00:37:10;;;;;;;8.18;6.13;;;;;;;7.12;100.00;95678.63;4990264;28;20474;-55
2022/02/15 00:39:39;;;;;;;7.28;6.45;;;;;;;7.23;100.00;95675.00;4993047;28;20098;-53
2022/02/15 00:42:08;;;;;;;10.57;6.30;;;;;;;7.21;100.00;95676.09;4997662;28;20079;-51
2022/02/15 00:44:36;;;;;;;7.35;6.35;;;;;;;7.18;100.00;95679.81;4968004;28;20074;-54
2022/02/15 00:47:05;;;;;;;8.00;6.38;;;;;;;7.38;100.00;95683.22;4966501;28;20600;-51
2022/02/15 00:49:35;;;;;;;8.85;6.65;;;;;;;7.37;100.00;95676.31;4967313;28;20078;-50
2022/02/15 00:52:04;;;;;;;8.43;6.18;;;;;;;7.41;100.00;95682.91;4973820;28;20065;-49
2022/02/15 00:54:32;;;;;;;8.80;6.47;;;;;;;7.48;100.00;95678.75;4991999;28;20077;-51
2022/02/15 00:57:01;;;;;;;10.27;6.90;;;;;;;7.42;100.00;95686.38;4990396;28;20544;-50
2022/02/15 00:59:29;;;;;;;9.35;6.70;;;;;;;7.48;100.00;95678.75;4968251;28;20081;-48
2022/02/15 01:01:58;;;;;;;10.45;7.45;;;;;;;7.36;100.00;95680.75;4970140;28;20545;-53
2022/02/15 01:04:26;;;;;;;8.00;6.90;;;;;;;7.41;100.00;95679.47;4973086;28;20536;-55
2022/02/15 01:06:56;;;;;;;9.77;7.07;;;;;;;7.47;100.00;95684.97;4980713;28;20066;-52
2022/02/15 01:09:24;;;;;;;7.97;6.63;;;;;;;7.69;100.00;95690.81;4968020;28;20081;-56
2022/02/15 01:11:53;;;;;;;8.23;6.45;;;;;;;7.50;100.00;95687.31;4989619;28;20513;-50
2022/02/15 01:14:21;;;;;;;8.18;6.53;;;;;;;7.72;100.00;95686.09;4986979;28;20062;-51
2022/02/15 01:16:50;;;;;;;10.73;7.10;;;;;;;7.51;100.00;95688.94;4977263;28;20070;-51
2022/02/15 01:19:18;;;;;;;9.57;7.10;;;;;;;7.52;100.00;95690.59;4967419;28;20078;-51
2022/02/15 01:21:47;;;;;;;7.70;6.68;;;;;;;7.44;100.00;95682.63;4963895;28;20549;-51
2022/02/15 01:24:17;;;;;;;9.60;6.85;;;;;;;7.22;100.00;95681.19;4967876;28;20532;-56
2022/02/15 01:26:45;;;;;;;9.35;7.32;;;;;;;7.48;100.00;95694.50;4986690;28;20066;-51
2022/02/15 01:29:13;;;;;;;11.63;7.13;;;;;;;7.63;100.00;95689.56;4984211;28;20188;-53
2022/02/15 01:31:42;;;;;;;10.02;6.80;;;;;;;7.30;100.00;95689.19;4987579;28;20070;-52
2022/02/15 01:34:11;;;;;;;7.80;6.53;;;;;;;7.45;100.00;95688.69;4994233;28;20463;-53
2022/02/15 01:36:40;;;;;;;9.25;6.85;;;;;;;7.22;100.00;95686.41;4984414;28;20078;-54
2022/02/15 01:39:09;;;;;;;7.22;6.43;;;;;;;7.40;100.00;95690.91;4965960;28;20093;-54
2022/02/15 01:41:38;;;;;;;8.63;6.53;;;;;;;7.31;100.00;95693.44;4970166;28;20062;-51
2022/02/15 01:44:07;;;;;;;7.32;6.43;;;;;;;7.18;100.00;95692.09;4983271;28;20438;-53
2022/02/15 01:46:38;;;;;;;8.73;6.78;;;;;;;7.25;100.00;95694.00;4978207;28;20062;-52
2022/02/15 01:49:06;;;;;;;;;;;;;;;7.17;100.00;95698.31;4993150;28;20082;-54
2022/02/15 01:51:34;;;;;;;9.70;6.53;;;;;;;7.13;100.00;95698.59;4996213;28;19968;-53
2022/02/15 01:54:03;;;;;;;7.63;6.57;;;;;;;7.01;100.00;95697.09;4992921;28;20082;-53
2022/02/15 01:56:32;;;;;;;7.68;6.88;;;;;;;7.18;100.00;95699.97;4974982;28;20077;-52
2022/02/15 01:59:02;;;;;;;8.20;7.03;;;;;;;7.18;100.00;95706.03;4984816;28;20085;-51
2022/02/15 02:01:30;;;;;;;9.63;6.90;;;;;;;7.04;100.00;95702.06;4992869;28;20100;-56
2022/02/15 02:03:59;;;;;;;8.07;6.70;;;;;;;7.16;100.00;95696.66;4991838;28;20074;-51
2022/02/15 02:06:26;;;;;;;8.18;6.20;;;;;;;6.88;100.00;95693.94;4997607;28;20686;-51
2022/02/15 02:08:55;;;;;;;8.27;6.80;;;;;;;7.06;100.00;95696.69;4991823;28;20449;-58
2022/02/15 02:11:24;;;;;;;7.35;6.60;;;;;;;7.07;100.00;95687.88;4991044;28;20074;-53
2022/02/15 02:13:52;;;;;;;9.52;6.90;;;;;;;7.20;100.00;95691.00;4990289;28;20062;-55
2022/02/15 02:16:31;;;;;;;8.88;7.13;;;;;;;6.94;100.00;95684.72;4992314;28;20081;-51
2022/02/15 02:19:00;;;;;;;8.07;6.85;;;;;;;6.94;100.00;95687.34;4995903;28;20468;-52
2022/02/15 02:21:36;;;;;;;7.82;6.88;;;;;;;6.99;100.00;95690.38;4990452;28;20485;-51
2022/02/15 02:24:06;;;;;;;7.53;6.80;;;;;;;6.98;100.00;95699.19;4971545;28;20082;-57
2022/02/15 02:26:35;;;;;;;7.97;7.00;;;;;;;6.97;100.00;95703.59;4967111;28;20081;-52
2022/02/15 02:29:04;;;;;;;8.73;7.15;;;;;;;6.80;100.00;95701.69;4966309;28;20441;-56
2022/02/15 02:31:32;;;;;;;10.50;7.20;;;;;;;6.93;100.00;95698.78;4974841;28;20065;-55
2022/02/15 02:34:01;;;;;;;8.80;6.90;;;;;;;7.09;100.00;95701.66;4987315;28;20074;-49
2022/02/15 02:36:29;;;;;;;8.77;7.47;;;;;;;7.16;100.00;95701.91;4990035;28;20062;-54
2022/02/15 02:38:59;;;;;;;10.00;7.55;;;;;;;7.17;100.00;95707.00;4992845;28;20089;-52
2022/02/15 02:41:28;;;;;;;8.60;7.10;;;;;;;7.17;100.00;95707.00;4972852;28;20042;-54
2022/02/15 02:43:56;;;;;;;7.63;6.60;;;;;;;7.07;100.00;95703.59;4970279;28;20488;-53
2022/02/15 02:46:25;;;;;;;10.35;7.18;;;;;;;7.03;100.00;95702.22;4965853;28;20063;-52
2022/02/15 02:48:53;;;;;;;8.60;6.95;;;;;;;6.96;100.00;95695.91;4963822;28;20070;-51
2022/02/15 02:51:21;;;;;;;8.57;6.68;;;;;;;6.91;100.00;95698.91;4969364;28;20082;-51
2022/02/15 02:53:50;;;;;;;7.78;6.85;;;;;;;6.74;100.00;95699.63;4988729;28;20544;-52
2022/02/15 02:56:20;;;;;;;7.57;6.78;;;;;;;6.81;100.00;95706.81;4967306;28;20066;-52
2022/02/15 02:58:48;;;;;;;11.82;7.03;;;;;;;6.85;100.00;95718.66;4964276;28;20074;-52
2022/02/15 03:01:16;;;;;;;8.32;7.10;;;;;;;7.16;100.00;95721.09;4970839;28;20071;-57
2022/02/15 03:03:45;;;;;;;7.57;6.70;;;;;;;6.85;100.00;95731.78;4972200;28;23063;-54
2022/02/15 03:06:13;;;;;;;9.23;6.90;;;;;;;6.89;100.00;95733.13;4982927;28;20079;-50
2022/02/15 03:08:42;;;;;;;7.22;6.38;;;;;;;6.70;100.00;95724.47;4994540;28;20088;-50
2022/02/15 03:11:12;;;;;;;7.50;6.60;;;;;;;6.85;100.00;95728.34;4989573;28;20080;-50
2022/02/15 03:13:42;;;;;;;8.75;6.75;;;;;;;6.74;100.00;95733.69;4987700;28;20485;-53
2022/02/15 03:16:10;;;;;;;7.07;6.33;;;;;;;6.76;100.00;95735.22;4993787;28;20169;-56
2022/02/15 03:18:38;;;;;;;7.47;6.32;;;;;;;6.70;100.00;95727.91;5000371;28;20496;-50
2022/02/15 03:21:07;;;;;;;8.68;6.47;;;;;;;6.76;100.00;95737.84;4991489;28;20085;-50
2022/02/15 03:23:35;;;;;;;7.18;6.47;;;;;;;6.77;100.00;95741.28;4993320;28;20061;-49
2022/02/15 03:26:04;;;;;;;9.98;6.90;;;;;;;6.94;100.00;95747.63;4993972;28;20536;-54
2022/02/15 03:28:32;;;;;;;8.27;7.05;;;;;;;6.87;100.00;95755.22;4991757;28;20100;-55
2022/02/15 03:31:02;;;;;;;8.52;7.25;;;;;;;6.94;100.00;95758.09;4990797;28;20085;-53
2022/02/15 03:33:31;;;;;;;8.23;6.75;;;;;;;6.79;100.00;95757.72;4991285;28;20086;-51
2022/02/15 03:36:00;;;;;;;8.82;6.88;;;;;;;6.73;100.00;95761.69;4992847;28;20543;-56
2022/02/15 03:38:30;;;;;;;8.30;7.00;;;;;;;6.64;100.00;95770.38;4990970;28;20061;-54
2022/02/15 03:43:44;;;;;;;7.63;6.82;;;;;;;6.91;100.00;95767.06;4993090;28;20076;-52
2022/02/15 03:46:14;;;;;;;8.90;7.20;;;;;;;6.79;100.00;95771.63;4994576;28;20081;-51
2022/02/15 03:48:42;;;;;;;8.48;6.75;;;;;;;6.93;100.00;95762.53;4992417;28;20073;-55
2022/02/15 03:51:11;;;;;;;9.88;7.57;;;;;;;6.89;100.00;95775.06;4992255;28;20767;-53
2022/02/15 03:53:39;;;;;;;10.98;7.75;;;;;;;6.79;100.00;95769.00;4991760;28;20062;-51
2022/02/15 03:56:10;;;;;;;9.23;7.57;;;;;;;6.83;100.00;95770.38;4987718;28;20488;-52
2022/02/15 03:58:38;;;;;;;8.50;7.13;;;;;;;6.84;100.00;95776.44;4988407;28;20069;-51
2022/02/15 04:01:07;;;;;;;8.23;6.80;;;;;;;6.75;100.00;95774.69;4991184;28;20142;-53
2022/02/15 04:03:37;;;;;;;9.57;7.15;;;;;;;6.65;100.00;95779.91;5001687;28;20068;-50
2022/02/15 04:06:06;;;;;;;7.88;6.80;;;;;;;6.72;100.00;95783.63;4994097;28;20090;-54
2022/02/15 04:08:34;;;;;;;8.77;7.05;;;;;;;6.74;100.00;95786.09;4984202;28;20058;-53
2022/02/15 04:11:02;;;;;;;9.43;7.32;;;;;;;6.72;100.00;95783.63;4992989;28;20070;-57
2022/02/15 04:13:31;;;;;;;8.75;7.15;;;;;;;6.73;100.00;95787.06;4991239;28;20065;-54
2022/02/15 04:16:00;;;;;;;7.43;6.47;;;;;;;6.49;100.00;95798.75;4984332;28;20043;-55
2022/02/15 04:18:28;;;;;;;7.30;6.32;;;;;;;6.59;100.00;95783.88;4967404;28;20465;-53
2022/02/15 04:20:58;;;;;;;9.07;6.82;;;;;;;6.64;100.00;95794.81;4968052;28;20513;-49
2022/02/15 04:23:26;;;;;;;9.57;6.70;;;;;;;6.63;100.00;95794.91;4983657;28;20069;-50
2022/02/15 04:25:55;;;;;;;8.52;6.88;;;;;;;6.50;100.00;95795.16;4989389;28;20066;-52
2022/02/15 04:28:23;;;;;;;10.95;7.80;;;;;;;6.68;100.00;95797.16;4995353;28;20512;-48
2022/02/15 04:30:51;;;;;;;9.32;6.13;;;;;;;6.47;100.00;95805.94;4986734;28;20446;-51
2022/02/15 04:33:20;;;;;;;9.40;6.80;;;;;;;6.78;100.00;95800.56;4986589;28;20119;-50
2022/02/15 04:35:48;;;;;;;10.32;7.03;;;;;;;6.62;100.00;95801.97;4995418;28;20066;-52
2022/02/15 04:38:19;;;;;;;8.73;6.65;;;;;;;6.57;100.00;95805.94;4994567;28;20069;-55
2022/02/15 04:40:47;;;;;;;8.40;6.90;;;;;;;6.63;100.00;95810.63;4985536;28;20481;-52
2022/02/15 04:43:16;;;;;;;9.15;7.80;;;;;;;6.81;100.00;95803.78;4992982;28;20054;-51
2022/02/15 04:45:44;;;;;;;8.40;7.13;;;;;;;6.79;100.00;95810.13;4992504;28;20089;-55
2022/02/15 04:48:13;;;;;;;8.48;6.78;;;;;;;6.76;100.00;95807.75;4995348;28;20096;-51
2022/02/15 04:50:41;;;;;;;7.65;6.32;;;;;;;6.64;100.00;95813.13;4989098;28;20437;-49
2022/02/15 04:53:09;;;;;;;7.97;6.80;;;;;;;7.02;100.00;95813.25;4985350;28;20080;-54
2022/02/15 04:55:39;;;;;;;7.75;6.60;;;;;;;6.88;100.00;95812.75;4998063;28;20061;-53
2022/02/15 04:58:08;;;;;;;8.85;6.85;;;;;;;6.87;100.00;95811.06;4989022;28;20489;-54
2022/02/15 05:00:37;;;;;;;7.05;6.35;;;;;;;6.50;100.00;95812.69;4993357;28;20093;-55
2022/02/15 05:03:05;;;;;;;8.27;6.80;;;;;;;6.80;100.00;95819.63;4993158;28;20057;-48
2022/02/15 05:05:34;;;;;;;6.93;6.22;;;;;;;6.54;100.00;95822.78;4991136;28;20073;-52
2022/02/15 05:08:03;;;;;;;8.77;6.60;;;;;;;6.74;100.00;95826.22;4986666;28;20066;-54
2022/02/15 05:10:33;;;;;;;8.50;6.18;;;;;;;6.81;100.00;95826.50;4992321;28;20058;-51
2022/02/15 05:13:08;;;;;;;6.50;5.85;;;;;;;6.49;100.00;95830.19;4995016;28;20078;-51
2022/02/15 05:15:36;;;;;;;6.93;5.60;;;;;;;6.58;100.00;95833.81;4988673;28;20149;-52
2022/02/15 05:18:05;;;;;;;7.65;5.95;;;;;;;6.53;100.00;95833.38;4993071;28;20081;-52
2022/02/15 05:20:34;;;;;;;7.72;5.97;;;;;;;6.59;100.00;95833.66;4989317;28;20105;-53
2022/02/15 05:23:03;;;;;;;7.70;6.13;;;;;;;6.62;100.00;95833.38;4993558;28;20073;-53
2022/02/15 05:25:31;;;;;;;7.65;5.80;;;;;;;6.49;100.00;95837.22;4988380;28;20076;-53
2022/02/15 05:28:00;;;;;;;8.00;6.28;;;;;;;6.44;100.00;95842.06;4994688;28;20066;-53
2022/02/15 05:30:30;;;;;;;8.50;6.70;;;;;;;6.48;100.00;95835.59;4994798;28;20069;-56
2022/02/15 05:32:58;;;;;;;6.65;5.65;;;;;;;6.52;100.00;95836.97;4998336;28;20082;-52
2022/02/15 05:35:27;;;;;;;7.15;6.40;;;;;;;6.51;100.00;95841.38;4989094;28;20594;-49
2022/02/15 05:37:56;;;;;;;8.75;6.10;;;;;;;6.55;100.00;95848.00;4996492;28;20046;-50
2022/02/15 05:40:24;;;;;;;9.32;5.30;;;;;;;6.46;100.00;95842.72;4994656;28;20065;-51
2022/02/15 05:42:53;;;;;;;7.13;5.97;;;;;;;6.40;100.00;95844.09;4995075;28;20846;-48
2022/02/15 05:45:21;;;;;;;8.02;5.65;;;;;;;6.13;100.00;95856.00;4996064;28;20097;-51
2022/02/15 05:47:51;;;;;;;6.22;5.32;;;;;;;6.36;100.00;95856.63;4993849;28;20074;-53
2022/02/15 05:53:15;;;;;;;6.72;5.53;;;;;;;6.28;100.00;95861.69;4998843;28;20076;-52
2022/02/15 05:55:43;;;;;;;7.07;5.15;;;;;;;6.07;100.00;95871.41;4980797;28;20066;-54
2022/02/15 05:58:12;;;;;;;5.60;5.00;;;;;;;6.32;100.00;95870.94;4973620;28;20069;-53
2022/02/15 06:00:40;;;;;;;5.82;5.25;;;;;;;6.15;100.00;95869.78;4988146;28;20438;-51
2022/02/15 06:05:53;;;;;;;7.55;5.30;;;;;;;6.37;100.00;95876.63;4968964;28;22361;-56
2022/02/15 06:08:21;;;;;;;7.30;5.40;;;;;;;6.21;100.00;95880.69;4965789;28;20075;-52
2022/02/15 06:10:49;;;;;;;7.82;5.28;;;;;;;6.21;100.00;95881.53;4973398;28;20457;-55
2022/02/15 06:13:18;;;;;;;7.63;4.90;;;;;;;6.13;100.00;95887.41;4970255;28;20086;-53
2022/02/15 06:15:47;;;;;;;7.05;5.60;;;;;;;6.29;100.00;95891.31;4962046;28;20454;-55
2022/02/15 06:18:17;;;;;;;8.23;4.75;;;;;;;6.43;100.00;95896.19;4971767;28;20090;-54
2022/02/15 06:20:46;;;;;;;9.57;5.25;;;;;;;6.34;100.00;95897.84;4996305;28;20081;-52
2022/02/15 06:23:14;;;;;;;6.65;5.50;;;;;;;6.24;100.00;95904.81;4987461;28;20074;-48
2022/02/15 06:25:43;;;;;;;7.60;5.47;;;;;;;6.47;100.00;95905.47;4976872;28;21441;-55
2022/02/15 06:28:14;;;;;;;7.28;5.65;;;;;;;6.29;100.00;95891.31;4981486;28;20526;-51
2022/02/15 06:30:42;;;;;;;9.73;5.80;;;;;;;6.27;100.00;95896.72;4980561;28;20081;-54
2022/02/15 06:33:11;;;;;;;8.60;6.00;;;;;;;6.28;100.00;95893.13;4972086;28;20086;-54
2022/02/15 06:35:41;;;;;;;7.05;5.75;;;;;;;6.27;100.00;95896.72;4965041;28;20066;-49
2022/02/15 06:38:09;;;;;;;8.20;6.05;;;;;;;6.35;100.00;95898.66;4965172;28;20062;-50
2022/02/15 06:40:41;;;;;;;6.60;5.38;;;;;;;6.24;100.00;95893.53;4977609;28;20073;-50
2022/02/15 06:43:10;;;;;;;8.13;5.47;;;;;;;6.27;100.00;95907.19;4985436;28;20544;-51
2022/02/15 06:45:39;;;;;;;9.68;6.05;;;;;;;6.40;100.00;95912.16;4968874;28;20079;-56
2022/02/15 06:48:07;;;;;;;12.02;6.00;;;;;;;6.38;100.00;95914.13;4986950;28;20092;-48
2022/02/15 06:50:36;;;;;;;6.50;5.55;;;;;;;6.33;100.00;95925.00;4967131;28;20067;-50
2022/02/15 06:53:06;;;;;;;8.48;5.45;;;;;;;6.42;100.00;95923.34;4970667;28;20077;-53
2022/02/15 06:55:54;;;;;;;8.45;5.32;;;;;;;6.27;100.00;95925.50;4983286;28;20073;-56
2022/02/15 06:58:28;;;;;;;6.68;5.30;;;;;;;6.20;100.00;95932.22;4975848;28;20077;-56
2022/02/15 07:00:56;;;;;;;9.23;5.30;;;;;;;6.32;100.00;95933.78;4963481;28;20520;-57
2022/02/15 07:03:25;;;;;;;5.50;5.00;;;;;;;6.66;100.00;95933.50;4972101;28;20078;-50
2022/02/15 07:05:53;;;;;;;6.47;5.20;;;;;;;6.42;100.00;95932.03;4987731;28;20391;-55
2022/02/15 07:08:23;;;;;;;6.00;4.93;;;;;;;6.48;100.00;95937.72;4986997;28;20065;-53
2022/02/15 07:10:54;;;;;;;7.30;4.70;;;;;;;6.53;100.00;95943.38;4988469;28;20088;-53
2022/02/15 07:13:22;;;;;;;6.97;5.47;;;;;;;6.41;100.00;95947.91;4978988;28;20494;-53
2022/02/15 07:15:51;;;;;;;6.85;4.85;;;;;;;6.78;100.00;95949.94;4975790;28;20069;-54
2022/02/15 07:18:20;;;;;;;5.75;4.88;;;;;;;6.45;100.00;95951.91;4987644;28;20097;-48
2022/02/15 07:20:49;;;;;;;6.57;4.70;;;;;;;6.76;100.00;95949.25;4995512;28;20081;-56
2022/02/15 07:23:17;;;;;;;7.28;4.93;;;;;;;6.70;100.00;95949.78;4988530;28;20065;-58
2022/02/15 07:25:49;;;;;;;7.95;5.05;;;;;;;6.90;100.00;95956.75;4987721;28;20487;-54
2022/02/15 07:28:18;;;;;;;6.68;4.82;;;;;;;6.89;100.00;95955.91;4987594;28;20088;-52
2022/02/15 07:30:46;;;;;;;6.15;4.70;;;;;;;6.71;100.00;95960.16;4993325;28;20092;-56
2022/02/15 07:33:15;;;;;;;5.40;4.53;;;;;;;6.88;100.00;95958.66;4994447;28;20073;-51
2022/02/15 07:35:43;;;;;;;7.25;5.00;;;;;;;6.35;100.00;95974.59;4992701;28;20074;-53
2022/02/15 07:38:12;;;;;;;6.15;4.97;;;;;;;6.78;100.00;95968.28;4990977;28;20548;-57
2022/02/15 07:40:40;;;;;;;5.68;4.68;;;;;;;6.75;100.00;95972.00;4992745;28;20070;-55
2022/02/15 07:43:10;;;;;;;5.55;4.88;;;;;;;6.75;100.00;95981.66;4990227;28;20559;-55
2022/02/15 07:45:40;;;;;;;8.20;6.18;;;;;;;6.55;100.00;95975.53;4996049;28;20078;-55
2022/02/15 07:48:09;;;;;;;6.60;4.88;;;;;;;6.76;100.00;95983.31;4991472;28;20089;-53
2022/02/15 07:50:38;;;;;;;9.07;6.35;;;;;;;6.78;100.00;95974.38;4989300;28;20540;-54
2022/02/15 07:53:06;;;;;;;7.40;5.10;;;;;;;6.96;100.00;95977.19;4973775;28;20074;-54
2022/02/15 07:55:35;;;;;;;8.23;5.18;;;;;;;6.80;100.00;95974.22;4980784;28;20073;-56
2022/02/15 07:58:03;;;;;;;6.97;5.22;;;;;;;6.87;100.00;95984.03;4979989;28;20081;-57
2022/02/15 08:00:33;;;;;;;7.85;5.40;;;;;;;6.92;100.00;95974.94;4964481;28;20141;-55
2022/02/15 08:03:02;;;;;;;6.55;5.25;;;;;;;7.16;100.00;95978.06;4965037;28;20074;-55
2022/02/15 08:05:30;;;;;;;9.93;5.32;;;;;;;7.09;100.00;95980.38;4985611;28;20073;-58
2022/02/15 08:07:59;;;;;;;7.22;5.07;;;;;;;7.21;100.00;95975.84;4992895;28;20100;-55
2022/02/15 08:10:27;;;;;;;6.80;5.07;;;;;;;7.12;100.00;95974.03;4988423;28;20078;-56
2022/02/15 08:12:57;;;;;;;6.13;4.75;;;;;;;7.35;100.00;95975.44;4987162;28;20445;-59
2022/02/15 08:15:28;;;;;;;8.02;5.25;;;;;;;7.12;100.00;95984.50;4971600;28;20085;-58
2022/02/15 08:17:58;;;;;;;7.95;5.22;;;;;;;7.19;100.00;95979.56;4968571;28;21516;-55
2022/02/15 08:20:30;;;;;;;6.22;4.78;;;;;;;7.66;100.00;95988.44;4988011;28;20076;-57
2022/02/15 08:22:59;;;;;;;6.15;4.55;;;;;;;7.11;100.00;95993.34;4973886;28;20070;-55
2022/02/15 08:25:28;;;;;;;5.18;4.68;;;;;;;7.34;100.00;95991.31;4959743;28;20066;-55
2022/02/15 08:27:57;;;;;;;8.07;5.30;;;;;;;7.51;100.00;95995.91;4963721;28;20062;-55
2022/02/15 08:30:25;;;;;;;6.18;4.55;;;;;;;7.46;100.00;95997.25;4971347;28;20085;-53
2022/02/15 08:32:54;;;;;;;9.13;4.57;;;;;;;7.42;100.00;95994.09;4988155;28;20443;-53
2022/02/15 08:35:24;;;;;;;7.18;4.60;;;;;;;7.34;100.00;95997.41;4970339;28;20074;-54
2022/02/15 08:37:52;;;;;;;6.85;4.88;;;;;;;7.47;100.00;95997.16;4982163;28;20472;-48
2022/02/15 08:40:21;;;;;;;7.38;4.38;;;;;;;7.87;100.00;95995.34;4989268;28;20065;-53
2022/02/15 08:42:49;;;;;;;7.80;4.60;;;;;;;7.76;100.00;96004.19;4987511;28;20070;-55
2022/02/15 08:45:18;;;;;;;6.85;4.03;;;;;;;7.99;100.00;96010.81;4992831;28;20081;-51
2022/02/15 08:47:46;;;;;;;6.70;4.35;;;;;;;7.81;100.00;96007.22;4999096;28;20516;-55
2022/02/15 08:50:16;;;;;;;8.30;4.32;;;;;;;7.64;100.00;96014.00;4991283;28;20070;-53
2022/02/15 08:52:48;;;;;;;5.35;4.15;;;;;;;7.60;100.00;96016.06;4987328;28;20078;-58
2022/02/15 08:55:17;;;;;;;5.18;4.10;;;;;;;7.90;100.00;96011.63;4990963;28;20076;-53
2022/02/15 08:57:46;;;;;;;6.07;4.10;;;;;;;8.19;100.00;96019.50;4988910;28;20687;-50
2022/02/15 09:00:15;;;;;;;6.18;3.95;;;;;;;8.32;100.00;96017.38;4989777;28;20074;-56
2022/02/15 09:02:43;;;;;;;6.35;4.30;;;;;;;8.31;100.00;96025.41;4985964;28;20035;-52
2022/02/15 09:05:12;;;;;;;5.45;4.22;;;;;;;8.45;100.00;96025.00;4984331;28;20081;-55
2022/02/15 09:07:41;;;;;;;4.20;3.60;;;;;;;8.15;100.00;96023.34;4984253;28;20081;-50
2022/02/15 09:10:30;;;;;;;8.38;4.32;;;;;;;8.16;100.00;96030.28;4984218;28;20076;-51
2022/02/15 09:12:59;;;;;;;6.05;4.10;;;;;;;8.02;100.00;96030.72;4985566;28;20062;-52
2022/02/15 09:15:30;;;;;;;4.68;3.90;;;;;;;7.98;100.00;96032.78;4964891;28;20090;-57
2022/02/15 09:18:06;;;;;;;7.43;4.20;;;;;;;8.11;100.00;96035.13;4990369;28;20077;-51
2022/02/15 09:20:36;;;;;;;5.32;4.28;;;;;;;8.28;100.00;96041.44;4987630;28;20070;-54
2022/02/15 09:23:05;;;;;;;6.78;4.20;;;;;;;8.37;100.00;96039.78;4989211;28;20071;-53
2022/02/15 09:25:35;;;;;;;4.85;4.00;;;;;;;8.38;100.00;96034.41;4987613;28;20473;-50
2022/02/15 09:28:04;;;;;;;;;;;;;;;8.59;100.00;96031.59;4987379;28;20058;-56
2022/02/15 09:30:33;;;;;;;8.00;3.90;;;;;;;8.16;100.00;96030.28;4978972;28;19921;-50
2022/02/15 09:33:01;;;;;;;5.38;4.47;;;;;;;8.52;100.00;96041.03;4985890;28;20042;-51
2022/02/15 09:35:30;;;;;;;7.80;4.38;;;;;;;8.64;100.00;96033.81;4989165;28;20062;-51
2022/02/15 09:37:58;;;;;;;5.30;4.03;;;;;;;8.25;100.00;96037.31;4987521;28;20085;-54
2022/02/15 09:40:27;;;;;;;7.80;4.65;;;;;;;8.61;100.00;96039.34;4988236;28;20085;-51
2022/02/15 09:42:57;;;;;;;5.28;3.95;;;;;;;8.44;100.00;96035.66;4984959;28;20077;-53
2022/02/15 09:45:26;;;;;;;6.95;4.60;;;;;;;8.84;100.00;96039.81;4985328;28;20100;-54
2022/02/15 09:47:55;;;;;;;6.43;4.10;;;;;;;9.07;100.00;96041.09;4986221;28;20077;-52
2022/02/15 09:50:23;;;;;;;8.73;4.18;;;;;;;9.02;100.00;96044.19;4981743;28;20078;-48
2022/02/15 09:52:55;;;;;;;5.75;4.47;;;;;;;8.84;100.00;96042.44;4985784;28;20078;-54
2022/02/15 09:55:23;;;;;;;5.55;3.95;;;;;;;9.12;100.00;96046.78;4986035;28;20077;-54
2022/02/15 09:57:51;;;;;;;5.68;3.72;;;;;;;9.12;100.00;96046.78;4986286;28;20077;-54
2022/02/15 10:00:22;;;;;;;6.05;4.00;;;;;;;8.75;100.00;96044.97;4986479;28;20077;-53
2022/02/15 10:02:50;;;;;;;5.00;3.90;;;;;;;8.70;100.00;96044.56;4983688;28;20070;-51
2022/02/15 10:05:21;;;;;;;6.70;4.18;;;;;;;9.16;100.00;96044.69;4989429;28;20449;-50
2022/02/15 10:07:53;;;;;;;6.88;4.25;;;;;;;9.68;100.00;96047.56;4986291;28;20086;-53
2022/02/15 10:10:30;;;;;;;9.30;4.35;;;;;;;9.72;100.00;96054.16;4983129;28;20066;-55
2022/02/15 10:13:00;;;;;;;6.45;3.90;;;;;;;9.51;100.00;96050.00;4988126;28;20042;-51
2022/02/15 10:15:38;;;;;;;6.25;4.10;;;;;;;9.69;100.00;96057.91;4991135;28;20070;-51
2022/02/15 10:18:10;;;;;;;5.10;3.90;;;;;;;9.66;100.00;96060.03;4987553;28;20069;-52
2022/02/15 10:20:42;;;;;;;5.60;4.15;;;;;;;9.59;100.00;96059.78;4990511;28;20062;-51
2022/02/15 10:23:19;;;;;;;5.95;3.78;;;;;;;9.51;100.00;96064.97;4992099;28;20089;-57
2022/02/15 10:25:48;;;;;;;4.15;3.47;;;;;;;9.30;100.00;96072.31;4993086;28;20453;-55
2022/02/15 10:28:19;;;;;;;5.00;3.92;;;;;;;9.56;100.00;96073.25;4969929;28;20077;-53
2022/02/15 10:30:50;;;;;;;4.22;3.80;;;;;;;9.17;100.00;96070.00;4964819;28;20070;-55
2022/02/15 10:33:22;;;;;;;8.93;3.92;;;;;;;9.47;100.00;96077.59;4969275;28;20482;-50
2022/02/15 10:35:58;;;;;;;5.03;3.72;;;;;;;8.93;100.00;96081.03;4973803;28;20070;-56
2022/02/15 10:38:28;;;;;;;4.03;3.63;;;;;;;8.85;100.00;96092.28;4970771;28;20520;-53
2022/02/15 10:41:00;;;;;;;;;;;;;;;9.05;100.00;96082.53;4968223;28;20078;-54
2022/02/15 10:43:29;;;;;;;4.93;3.70;;;;;;;9.02;100.00;96083.63;4967402;28;20522;-52
2022/02/15 10:46:09;;;;;;;4.85;3.72;;;;;;;8.84;100.00;96079.25;4964657;28;20105;-53
2022/02/15 10:48:38;;;;;;;3.80;3.20;;;;;;;8.75;100.00;96079.16;4974440;28;20089;-49
2022/02/15 10:51:06;;;;;;;4.38;3.50;;;;;;;8.62;100.00;96075.16;4988310;28;20477;-54
2022/02/15 10:53:55;;;;;;;3.65;3.33;;;;;;;8.45;100.00;96066.22;4989853;28;20085;-55
2022/02/15 10:56:28;;;;;;;5.25;3.47;;;;;;;8.63;100.00;96069.75;4991319;28;20108;-53
2022/02/15 10:58:58;;;;;;;4.90;3.40;;;;;;;8.79;100.00;96067.38;4988954;28;20078;-53
2022/02/15 11:01:29;;;;;;;3.80;3.50;;;;;;;8.92;100.00;96074.13;5004610;28;20038;-54
2022/02/15 11:03:57;;;;;;;4.82;3.63;;;;;;;8.96;100.00;96067.59;4975689;28;20082;-55
2022/02/15 11:06:26;;;;;;;4.97;3.70;;;;;;;8.66;100.00;96072.09;4964996;28;20628;-55
2022/02/15 11:08:56;;;;;;;4.13;3.72;;;;;;;9.02;100.00;96069.66;4971864;28;20521;-53
2022/02/15 11:11:26;;;;;;;4.50;3.83;;;;;;;8.92;100.00;96067.06;4989389;28;20078;-54
2022/02/15 11:13:55;;;;;;;3.78;3.47;;;;;;;9.08;100.00;96070.84;4986277;28;20086;-55
2022/02/15 11:16:24;;;;;;;4.93;3.78;;;;;;;8.89;100.00;96069.97;4987780;28;20378;-53
2022/02/15 11:18:54;;;;;;;4.10;3.70;;;;;;;8.79;100.00;96066.53;4988767;28;20065;-51
2022/02/15 11:21:24;;;;;;;5.15;3.72;;;;;;;8.56;100.00;96069.50;4985091;28;20069;-54
2022/02/15 11:23:58;;;;;;;4.13;3.72;;;;;;;8.49;100.00;96064.94;4985917;28;20069;-53
2022/02/15 11:26:35;;;;;;;6.05;3.90;;;;;;;8.49;100.00;96067.56;4990901;28;20449;-51
2022/02/15 11:29:03;;;;;;;4.28;3.80;;;;;;;8.50;100.00;96069.25;4993148;28;20084;-51
2022/02/15 11:31:34;;;;;;;4.32;3.90;;;;;;;8.44;100.00;96075.91;4985177;28;20465;-52
2022/02/15 11:34:05;;;;;;;4.38;3.97;;;;;;;8.47;100.00;96069.53;4986438;28;20054;-50
2022/02/15 11:36:34;;;;;;;5.13;4.28;;;;;;;8.55;100.00;96070.47;4986789;28;20070;-53
2022/02/15 11:39:08;;;;;;;4.70;4.28;;;;;;;8.82;100.00;96068.06;4984865;28;20085;-51
2022/02/15 11:41:44;;;;;;;4.88;4.40;;;;;;;8.82;100.00;96068.88;4985312;28;20073;-54
2022/02/15 11:44:14;;;;;;;5.05;4.55;;;;;;;8.81;100.00;96064.63;4988749;28;20070;-55
2022/02/15 11:46:45;;;;;;;5.07;4.57;;;;;;;8.73;100.00;96078.44;4991430;28;20058;-56
2022/02/15 11:49:16;;;;;;;6.88;4.57;;;;;;;8.87;100.00;96071.91;4987176;28;20436;-55
2022/02/15 11:51:46;;;;;;;6.00;4.75;;;;;;;8.84;100.00;96066.09;4981984;28;20492;-53
2022/02/15 11:54:16;;;;;;;5.65;4.93;;;;;;;8.92;100.00;96066.22;4992083;28;20076;-56